createdAt,value
2019-04-10T00:00:35.112Z,54.78
2019-04-10T00:03:21.043Z,54.82
2019-04-10T00:05:44.515Z,54.78
2019-04-10T00:08:18.483Z,55.06
2019-04-10T00:10:52.188Z,55.23
2019-04-10T00:13:26.784Z,55.27
2019-04-10T00:16:00.013Z,55.03
2019-04-10T00:18:33.802Z,54.82
2019-04-10T00:21:07.397Z,55.05
2019-04-10T00:23:41.365Z,55.08
2019-04-10T00:26:15.868Z,54.96
2019-04-10T00:28:49.767Z,54.81
2019-04-10T00:31:24.308Z,54.77
2019-04-10T00:33:59.755Z,54.63
2019-04-10T00:36:33.195Z,54.57
2019-04-10T00:39:10.554Z,54.64
2019-04-10T00:41:44.279Z,54.60
2019-04-10T00:44:17.671Z,54.55
2019-04-10T00:46:51.055Z,54.63
2019-04-10T00:49:24.643Z,54.93
2019-04-10T00:51:58.079Z,55.54
2019-04-10T00:54:31.473Z,55.70
2019-04-10T00:57:06.056Z,55.77
2019-04-10T00:59:40.020Z,55.60
2019-04-10T01:02:16.457Z,55.75
2019-04-10T01:04:50.880Z,55.62
2019-04-10T01:07:35.958Z,55.71
2019-04-10T01:10:01.965Z,55.53
2019-04-10T01:12:40.440Z,55.52
2019-04-10T01:15:15.446Z,55.46
2019-04-10T01:17:52.878Z,55.58
2019-04-10T01:20:27.403Z,55.85
2019-04-10T01:23:01.493Z,55.99
2019-04-10T01:25:36.669Z,55.99
2019-04-10T01:28:12.721Z,56.31
2019-04-10T01:30:48.663Z,56.48
2019-04-10T01:33:28.370Z,56.62
2019-04-10T01:36:06.915Z,56.66
2019-04-10T01:38:43.840Z,56.25
2019-04-10T01:41:36.488Z,56.18
2019-04-10T01:44:11.750Z,56.14
2019-04-10T01:46:46.650Z,56.12
2019-04-10T01:49:25.989Z,55.94
2019-04-10T01:52:04.787Z,56.12
2019-04-10T01:54:45.542Z,56.10
2019-04-10T01:57:30.481Z,56.30
2019-04-10T02:00:05.027Z,56.44
2019-04-10T02:02:54.616Z,56.60
2019-04-10T02:05:36.614Z,57.05
2019-04-10T02:08:14.632Z,57.18
2019-04-10T02:10:52.738Z,56.85
2019-04-10T02:13:47.663Z,56.96
2019-04-10T02:16:39.043Z,56.95
2019-04-10T02:19:50.254Z,56.99
2019-04-10T02:22:27.428Z,56.90
2019-04-10T02:25:13.707Z,56.68
2019-04-10T02:28:02.803Z,56.94
2019-04-10T02:30:50.119Z,56.66
2019-04-10T02:33:53.762Z,56.86
2019-04-10T02:36:55.931Z,56.91
2019-04-10T02:39:37.909Z,57.25
2019-04-10T02:42:22.585Z,57.37
2019-04-10T02:45:25.856Z,57.59
2019-04-10T02:48:33.986Z,57.71
2019-04-10T02:51:13.680Z,57.53
2019-04-10T02:54:15.350Z,57.70
2019-04-10T02:56:56.877Z,57.69
2019-04-10T02:59:39.645Z,57.71
2019-04-10T03:02:28.817Z,58.05
2019-04-10T03:05:15.846Z,58.08
2019-04-10T03:08:17.351Z,58.02
2019-04-10T03:11:00.406Z,58.29
2019-04-10T03:14:02.194Z,58.29
2019-04-10T03:17:13.103Z,58.46
2019-04-10T03:20:45.258Z,58.58
2019-04-10T03:23:27.849Z,58.67
2019-04-10T03:26:09.754Z,58.59
2019-04-10T03:28:55.673Z,58.39
2019-04-10T03:31:34.502Z,58.40
2019-04-10T03:34:41.052Z,58.11
2019-04-10T03:41:08.625Z,58.50
2019-04-10T03:48:27.638Z,58.85
2019-04-10T03:51:16.541Z,58.79
2019-04-10T03:55:30.455Z,59.22
2019-04-10T03:59:11.681Z,59.47
2019-04-10T04:01:51.382Z,59.31
2019-04-10T04:04:25.819Z,59.48
2019-04-10T04:06:59.880Z,59.52
2019-04-10T04:09:58.172Z,59.68
2019-04-10T04:12:34.915Z,59.77
2019-04-10T04:15:35.843Z,59.92
2019-04-10T04:18:11.094Z,60.16
2019-04-10T04:20:45.388Z,59.84
2019-04-10T04:23:21.271Z,59.73
2019-04-10T04:26:07.270Z,59.76
2019-04-10T04:32:03.384Z,59.60
2019-04-10T04:37:38.203Z,58.72
2019-04-10T04:40:35.601Z,58.41
2019-04-10T04:43:21.951Z,57.98
2019-04-10T04:46:07.977Z,57.40
2019-04-10T04:48:41.629Z,57.22
2019-04-10T04:51:15.486Z,57.42
2019-04-10T04:56:42.880Z,57.32
2019-04-10T04:59:21.467Z,57.31
2019-04-10T05:02:01.339Z,57.67
2019-04-10T05:04:35.929Z,57.54
2019-04-10T05:07:13.431Z,57.58
2019-04-10T05:13:42.397Z,57.52
2019-04-10T05:16:38.265Z,56.80
2019-04-10T05:19:12.538Z,57.87
2019-04-10T05:25:19.129Z,54.77
2019-04-10T05:28:00.196Z,53.98
2019-04-10T05:30:54.677Z,52.84
2019-04-10T05:33:39.397Z,51.87
2019-04-10T05:36:13.862Z,51.71
2019-04-10T05:38:48.251Z,50.78
2019-04-10T05:41:35.461Z,49.82
2019-04-10T05:44:09.572Z,50.09
2019-04-10T05:46:43.269Z,49.66
2019-04-10T05:49:18.084Z,49.30
2019-04-10T05:51:51.441Z,48.29
2019-04-10T05:54:24.896Z,47.76
2019-04-10T05:56:58.982Z,47.17
2019-04-10T05:59:32.226Z,46.54
2019-04-10T06:02:06.810Z,46.17
2019-04-10T06:04:41.207Z,46.25
2019-04-10T06:07:16.968Z,46.36
2019-04-10T06:09:55.817Z,45.95
2019-04-10T06:12:26.503Z,45.96
2019-04-10T06:15:00.732Z,45.56
2019-04-10T06:17:34.334Z,46.00
2019-04-10T06:20:09.173Z,45.53
2019-04-10T06:22:44.335Z,45.42
2019-04-10T06:25:23.561Z,45.75
2019-04-10T06:27:56.855Z,44.65
2019-04-10T06:30:30.572Z,44.72
2019-04-10T06:33:04.129Z,44.96
2019-04-10T06:35:37.755Z,45.42
2019-04-10T06:38:10.912Z,44.94
2019-04-10T06:40:44.499Z,44.51
2019-04-10T06:43:17.652Z,43.43
2019-04-10T06:45:50.762Z,43.24
2019-04-10T06:48:25.945Z,43.87
2019-04-10T06:51:01.959Z,43.15
2019-04-10T06:53:35.346Z,42.77
2019-04-10T06:56:09.764Z,43.12
2019-04-10T06:58:44.360Z,42.64
2019-04-10T07:01:20.934Z,42.44
2019-04-10T07:04:01.889Z,42.79
2019-04-10T07:06:43.765Z,42.42
2019-04-10T07:09:07.474Z,42.32
2019-04-10T07:11:42.893Z,41.64
2019-04-10T07:14:16.270Z,42.44
2019-04-10T07:16:50.647Z,42.32
2019-04-10T07:19:24.405Z,40.94
2019-04-10T07:22:00.141Z,42.74
2019-04-10T07:24:36.924Z,41.78
2019-04-10T07:27:08.087Z,41.08
2019-04-10T07:29:42.689Z,40.95
2019-04-10T07:32:16.894Z,40.26
2019-04-10T07:34:50.840Z,39.65
2019-04-10T07:37:25.881Z,40.36
2019-04-10T07:40:04.093Z,39.12
2019-04-10T07:42:39.764Z,39.34
2019-04-10T07:45:11.062Z,38.46
2019-04-10T07:47:44.196Z,39.44
2019-04-10T07:50:18.392Z,38.09
2019-04-10T07:52:52.098Z,38.21
2019-04-10T07:55:25.385Z,38.28
2019-04-10T07:57:59.752Z,38.77
2019-04-10T08:00:32.961Z,39.54
2019-04-10T08:03:06.375Z,39.10
2019-04-10T08:05:39.427Z,39.00
2019-04-10T08:08:12.666Z,37.98
2019-04-10T08:10:45.768Z,37.38
2019-04-10T08:13:18.845Z,37.21
2019-04-10T08:15:52.256Z,36.70
2019-04-10T08:18:25.554Z,37.41
2019-04-10T08:20:59.271Z,37.05
2019-04-10T08:23:33.673Z,35.67
2019-04-10T08:26:07.994Z,36.52
2019-04-10T08:28:41.320Z,36.94
2019-04-10T08:31:14.945Z,36.12
2019-04-10T08:33:47.929Z,35.55
2019-04-10T08:36:21.541Z,35.69
2019-04-10T08:38:54.986Z,36.49
2019-04-10T08:41:28.227Z,35.65
2019-04-10T08:44:02.155Z,36.36
2019-04-10T08:46:35.778Z,37.46
2019-04-10T08:49:08.921Z,37.39
2019-04-10T08:51:41.868Z,36.86
2019-04-10T08:54:14.913Z,36.21
2019-04-10T08:56:49.105Z,36.72
2019-04-10T08:59:23.637Z,37.26
2019-04-10T09:01:57.748Z,35.61
2019-04-10T09:04:31.171Z,36.50
2019-04-10T09:07:05.689Z,36.68
2019-04-10T09:09:39.461Z,36.18
2019-04-10T09:12:14.074Z,36.60
2019-04-10T09:14:47.574Z,36.91
2019-04-10T09:17:20.683Z,36.99
2019-04-10T09:19:54.087Z,36.60
2019-04-10T09:22:27.192Z,35.56
2019-04-10T09:25:00.671Z,35.84
2019-04-10T09:27:33.832Z,35.70
2019-04-10T09:30:08.718Z,35.40
2019-04-10T09:32:42.376Z,35.80
2019-04-10T09:35:16.569Z,34.99
2019-04-10T09:37:50.445Z,35.61
2019-04-10T09:40:24.496Z,34.44
2019-04-10T09:42:57.781Z,34.98
2019-04-10T09:45:30.844Z,35.49
2019-04-10T09:48:04.972Z,34.70
2019-04-10T09:50:38.089Z,36.09
2019-04-10T09:53:12.816Z,33.98
2019-04-10T09:55:46.928Z,34.68
2019-04-10T09:58:20.231Z,33.74
2019-04-10T10:00:54.440Z,32.92
2019-04-10T10:03:28.188Z,34.35
2019-04-10T10:06:01.800Z,33.09
2019-04-10T10:08:35.942Z,33.69
2019-04-10T10:11:09.600Z,34.10
2019-04-10T10:13:42.837Z,35.32
2019-04-10T10:16:16.959Z,33.50
2019-04-10T10:18:50.155Z,33.97
2019-04-10T10:21:24.129Z,33.53
2019-04-10T10:23:58.247Z,32.82
2019-04-10T10:26:32.900Z,32.47
2019-04-10T10:29:06.189Z,36.02
2019-04-10T10:31:40.258Z,33.99
2019-04-10T10:34:14.300Z,32.72
2019-04-10T10:36:49.206Z,33.40
2019-04-10T10:39:23.034Z,33.69
2019-04-10T10:41:56.814Z,33.35
2019-04-10T10:44:30.156Z,32.24
2019-04-10T10:47:04.153Z,32.54
2019-04-10T10:49:37.230Z,31.95
2019-04-10T10:52:11.135Z,32.14
2019-04-10T10:54:45.209Z,32.80
2019-04-10T10:57:19.371Z,33.38
2019-04-10T10:59:53.542Z,33.46
2019-04-10T11:02:27.694Z,30.83
2019-04-10T11:05:02.922Z,31.58
2019-04-10T11:07:36.713Z,32.46
2019-04-10T11:10:10.659Z,32.70
2019-04-10T11:12:44.172Z,32.34
2019-04-10T11:15:18.367Z,31.60
2019-04-10T11:17:52.083Z,31.00
2019-04-10T11:20:25.663Z,31.67
2019-04-10T11:23:00.358Z,36.15
2019-04-10T11:25:34.072Z,30.89
2019-04-10T11:28:07.709Z,30.78
2019-04-10T11:30:41.166Z,30.87
2019-04-10T11:33:17.453Z,32.07
2019-04-10T11:35:51.516Z,31.60
2019-04-10T11:38:25.795Z,31.70
2019-04-10T11:41:00.147Z,30.23
2019-04-10T11:43:34.628Z,30.55
2019-04-10T11:46:08.205Z,32.61
2019-04-10T11:48:42.698Z,30.81
2019-04-10T11:51:23.527Z,31.79
2019-04-10T11:54:07.277Z,32.03
2019-04-10T11:56:46.567Z,32.25
2019-04-10T11:59:23.707Z,32.31
2019-04-10T12:02:05.153Z,32.25
2019-04-10T12:04:45.065Z,32.50
2019-04-10T12:07:23.516Z,32.90
2019-04-10T12:12:19.561Z,33.61
2019-04-10T12:14:54.229Z,31.53
2019-04-10T12:17:27.707Z,30.72
2019-04-10T12:20:00.971Z,31.53
2019-04-10T12:22:34.170Z,31.70
2019-04-10T12:25:07.404Z,31.62
2019-04-10T12:27:41.187Z,31.98
2019-04-10T12:30:15.301Z,32.41
2019-04-10T12:32:49.268Z,32.93
2019-04-10T12:35:22.730Z,31.40
2019-04-10T12:38:05.394Z,31.73
2019-04-10T12:40:37.949Z,32.16
2019-04-10T12:43:10.642Z,31.10
2019-04-10T12:45:44.389Z,31.17
2019-04-10T12:48:18.548Z,31.90
2019-04-10T12:50:53.005Z,31.56
2019-04-10T12:53:27.308Z,30.96
2019-04-10T12:56:01.974Z,30.91
2019-04-10T12:58:35.207Z,30.86
2019-04-10T13:01:08.932Z,30.94
2019-04-10T13:03:43.117Z,30.95
2019-04-10T13:06:16.304Z,30.75
2019-04-10T13:08:59.123Z,30.37
2019-04-10T13:11:24.577Z,30.02
2019-04-10T13:13:58.309Z,29.54
2019-04-10T13:16:32.126Z,29.89
2019-04-10T13:19:05.192Z,29.69
2019-04-10T13:21:38.842Z,30.71
2019-04-10T13:24:13.180Z,31.22
2019-04-10T13:26:46.393Z,31.05
2019-04-10T13:29:21.093Z,31.44
2019-04-10T13:31:54.351Z,31.71
2019-04-10T13:34:27.421Z,32.25
2019-04-10T13:37:00.446Z,32.60
2019-04-10T13:39:33.588Z,33.25
2019-04-10T13:42:07.723Z,34.38
2019-04-10T13:44:40.746Z,33.27
2019-04-10T13:47:13.780Z,33.68
2019-04-10T13:49:46.903Z,33.34
2019-04-10T13:52:20.323Z,33.15
2019-04-10T13:54:53.495Z,32.72
2019-04-10T13:57:26.719Z,32.84
2019-04-10T13:59:59.678Z,33.12
2019-04-10T14:02:37.891Z,33.25
2019-04-10T14:05:13.741Z,33.10
2019-04-10T14:07:46.820Z,33.62
2019-04-10T14:10:21.467Z,33.95
2019-04-10T14:12:56.397Z,33.42
2019-04-10T14:15:30.349Z,33.50
2019-04-10T14:18:03.983Z,33.93
2019-04-10T14:20:37.575Z,33.95
2019-04-10T14:23:15.351Z,33.40
2019-04-10T14:26:06.500Z,33.71
2019-04-10T14:28:40.824Z,34.13
2019-04-10T14:31:23.206Z,34.14
2019-04-10T14:33:56.593Z,33.72
2019-04-10T14:36:31.784Z,33.66
2019-04-10T14:39:13.846Z,33.37
2019-04-10T14:41:44.591Z,33.74
2019-04-10T14:44:18.907Z,33.91
2019-04-10T14:46:51.984Z,33.76
2019-04-10T14:49:25.167Z,34.79
2019-04-10T14:52:00.999Z,34.94
2019-04-10T14:54:35.731Z,35.52
2019-04-10T14:57:08.992Z,35.15
2019-04-10T14:59:42.236Z,35.77
2019-04-10T15:02:16.761Z,35.30
2019-04-10T15:04:51.175Z,35.11
2019-04-10T15:07:26.821Z,35.38
2019-04-10T15:10:00.126Z,35.24
2019-04-10T15:12:35.656Z,35.00
2019-04-10T15:15:10.078Z,35.13
2019-04-10T15:17:47.201Z,35.17
2019-04-10T15:20:20.961Z,35.63
2019-04-10T15:22:56.487Z,37.29
2019-04-10T15:25:29.643Z,35.80
2019-04-10T15:28:04.349Z,35.60
2019-04-10T15:30:39.034Z,35.59
2019-04-10T15:33:12.412Z,35.92
2019-04-10T15:35:49.285Z,35.01
2019-04-10T15:38:27.162Z,35.13
2019-04-10T15:41:03.654Z,35.05
2019-04-10T15:43:41.302Z,35.07
2019-04-10T15:46:13.546Z,34.79
2019-04-10T15:48:46.731Z,34.87
2019-04-10T15:51:20.401Z,34.92
2019-04-10T15:53:53.866Z,35.70
2019-04-10T15:56:36.054Z,35.96
2019-04-10T15:59:10.162Z,35.87
2019-04-10T16:01:46.875Z,36.09
2019-04-10T16:04:23.961Z,35.97
2019-04-10T16:07:00.065Z,35.51
2019-04-10T16:09:44.860Z,35.98
2019-04-10T16:12:14.491Z,36.04
2019-04-10T16:14:48.649Z,35.59
2019-04-10T16:17:33.418Z,35.88
2019-04-10T16:20:30.423Z,35.99
2019-04-10T16:23:24.017Z,35.97
2019-04-10T16:25:58.636Z,36.33
2019-04-10T16:28:31.952Z,38.16
2019-04-10T16:31:05.730Z,44.07
2019-04-10T16:33:39.149Z,39.28
2019-04-10T16:36:14.075Z,38.76
2019-04-10T16:38:47.580Z,38.91
2019-04-10T16:41:26.807Z,39.10
2019-04-10T16:43:58.831Z,38.95
2019-04-10T16:46:32.160Z,39.27
2019-04-10T16:49:06.379Z,39.02
2019-04-10T16:51:44.743Z,39.78
2019-04-10T16:54:20.052Z,38.40
2019-04-10T16:56:54.155Z,38.24
2019-04-10T16:59:27.828Z,38.05
2019-04-10T17:02:02.178Z,38.29
2019-04-10T17:04:38.129Z,38.17
2019-04-10T17:07:11.587Z,38.34
2019-04-10T17:09:47.181Z,38.20
2019-04-10T17:12:20.621Z,37.96
2019-04-10T17:14:56.498Z,38.29
2019-04-10T17:17:30.532Z,38.01
2019-04-10T17:20:04.198Z,37.99
2019-04-10T17:22:43.747Z,37.95
2019-04-10T17:25:13.991Z,37.73
2019-04-10T17:27:47.958Z,38.07
2019-04-10T17:30:21.996Z,38.22
2019-04-10T17:32:56.286Z,38.46
2019-04-10T17:35:29.737Z,39.69
2019-04-10T17:38:02.925Z,40.41
2019-04-10T17:40:45.876Z,40.30
2019-04-10T17:43:12.718Z,40.96
2019-04-10T17:45:46.840Z,41.30
2019-04-10T17:48:20.142Z,42.07
2019-04-10T17:50:53.397Z,42.68
2019-04-10T17:53:26.618Z,42.37
2019-04-10T17:56:06.312Z,42.53
2019-04-10T17:58:35.811Z,42.46
2019-04-10T18:01:20.858Z,42.74
2019-04-10T18:03:55.202Z,42.72
2019-04-10T18:06:27.645Z,42.97
2019-04-10T18:09:01.242Z,42.91
2019-04-10T18:11:37.089Z,43.88
2019-04-10T18:14:11.150Z,43.01
2019-04-10T18:16:46.363Z,43.19
2019-04-10T18:19:21.280Z,43.23
2019-04-10T18:21:54.556Z,43.17
2019-04-10T18:24:28.401Z,43.38
2019-04-10T18:27:01.582Z,43.46
2019-04-10T18:29:35.077Z,43.75
2019-04-10T18:32:09.427Z,43.84
2019-04-10T18:34:42.787Z,44.02
2019-04-10T18:37:19.133Z,43.81
2019-04-10T18:40:05.199Z,43.78
2019-04-10T18:42:40.329Z,44.07
2019-04-10T18:45:13.994Z,43.93
2019-04-10T18:47:47.091Z,44.15
2019-04-10T18:50:20.315Z,44.18
2019-04-10T18:52:53.945Z,44.07
2019-04-10T18:55:28.704Z,44.23
2019-04-10T18:58:05.409Z,44.21
2019-04-10T19:01:18.833Z,44.08
2019-04-10T19:04:04.271Z,44.19
2019-04-10T19:07:04.986Z,44.20
2019-04-10T19:09:38.985Z,44.30
2019-04-10T19:12:12.743Z,44.29
2019-04-10T19:14:46.690Z,44.53
2019-04-10T19:17:20.081Z,44.48
2019-04-10T19:19:53.179Z,44.72
2019-04-10T19:22:26.351Z,44.54
2019-04-10T19:25:00.579Z,44.60
2019-04-10T19:27:36.063Z,44.66
2019-04-10T19:30:23.209Z,44.71
2019-04-10T19:32:57.443Z,44.82
2019-04-10T19:35:31.093Z,44.89
2019-04-10T19:38:05.172Z,46.04
2019-04-10T19:40:40.266Z,45.14
2019-04-10T19:43:13.798Z,44.93
2019-04-10T19:45:50.056Z,44.80
2019-04-10T19:48:25.493Z,45.08
2019-04-10T19:50:59.825Z,45.38
2019-04-10T19:53:35.297Z,45.16
2019-04-10T19:56:09.497Z,45.52
2019-04-10T19:58:45.992Z,45.61
2019-04-10T20:01:28.568Z,45.98
2019-04-10T20:04:00.040Z,45.85
2019-04-10T20:06:33.250Z,46.15
2019-04-10T20:09:10.519Z,46.28
2019-04-10T20:11:49.685Z,46.29
2019-04-10T20:14:20.041Z,46.66
2019-04-10T20:16:54.021Z,46.55
2019-04-10T20:19:27.008Z,46.71
2019-04-10T20:22:00.656Z,47.12
2019-04-10T20:24:36.743Z,46.83
2019-04-10T20:27:11.989Z,47.36
2019-04-10T20:29:51.036Z,47.19
2019-04-10T20:32:24.210Z,47.00
2019-04-10T20:34:58.037Z,46.86
2019-04-10T20:37:34.449Z,47.12
2019-04-10T20:40:07.831Z,47.33
2019-04-10T20:42:42.615Z,47.41
2019-04-10T20:45:17.584Z,47.19
2019-04-10T20:47:51.920Z,47.30
2019-04-10T20:50:25.999Z,47.32
2019-04-10T20:52:59.840Z,47.41
2019-04-10T20:55:33.476Z,47.47
2019-04-10T20:58:07.013Z,47.23
2019-04-10T21:00:42.909Z,47.44
2019-04-10T21:03:16.265Z,47.52
2019-04-10T21:05:49.285Z,47.46
2019-04-10T21:08:22.261Z,47.82
2019-04-10T21:10:55.383Z,47.93
2019-04-10T21:13:28.368Z,47.96
2019-04-10T21:16:01.525Z,48.13
2019-04-10T21:18:35.572Z,48.21
2019-04-10T21:21:10.205Z,48.37
2019-04-10T21:23:44.289Z,48.27
2019-04-10T21:26:19.785Z,48.42
2019-04-10T21:28:53.752Z,48.45
2019-04-10T21:31:40.934Z,48.91
2019-04-10T21:34:21.726Z,48.83
2019-04-10T21:36:55.078Z,49.31
2019-04-10T21:39:28.036Z,49.16
2019-04-10T21:42:13.143Z,49.12
2019-04-10T21:44:37.076Z,49.35
2019-04-10T21:47:11.085Z,49.29
2019-04-10T21:49:44.283Z,49.45
2019-04-10T21:52:18.498Z,49.35
2019-04-10T21:54:56.183Z,49.57
2019-04-10T21:57:26.487Z,49.91
2019-04-10T21:59:59.633Z,50.15
2019-04-10T22:02:33.666Z,50.16
2019-04-10T22:05:08.143Z,50.10
2019-04-10T22:08:00.827Z,50.12
2019-04-10T22:10:40.110Z,50.29
2019-04-10T22:13:13.510Z,50.52
2019-04-10T22:15:49.001Z,50.73
2019-04-10T22:18:23.328Z,50.79
2019-04-10T22:20:57.260Z,50.88
2019-04-10T22:23:32.179Z,51.14
2019-04-10T22:26:05.699Z,51.24
2019-04-10T22:28:39.373Z,51.45
2019-04-10T22:31:13.531Z,51.32
2019-04-10T22:33:46.944Z,51.36
2019-04-10T22:36:20.780Z,51.28
2019-04-10T22:38:54.091Z,51.61
2019-04-10T22:41:30.822Z,51.60
2019-04-10T22:44:01.780Z,51.94
2019-04-10T22:46:34.835Z,52.09
2019-04-10T22:49:08.408Z,51.94
2019-04-10T22:51:43.959Z,52.02
2019-04-10T22:54:17.936Z,52.24
2019-04-10T22:56:51.024Z,52.03
2019-04-10T22:59:24.246Z,52.27
2019-04-10T23:02:02.510Z,52.31
2019-04-10T23:04:33.349Z,52.70
2019-04-10T23:07:07.471Z,52.92
2019-04-10T23:09:40.519Z,53.02
2019-04-10T23:12:14.146Z,52.84
2019-04-10T23:14:47.427Z,52.68
2019-04-10T23:17:20.983Z,52.51
2019-04-10T23:19:54.439Z,52.97
2019-04-10T23:22:27.556Z,53.07
2019-04-10T23:25:01.658Z,53.02
2019-04-10T23:27:35.623Z,52.93
2019-04-10T23:30:14.853Z,52.67
2019-04-10T23:32:48.685Z,52.88
2019-04-10T23:35:21.772Z,53.19
2019-04-10T23:37:55.207Z,53.62
2019-04-10T23:40:29.335Z,53.88
2019-04-10T23:43:10.769Z,54.04
2019-04-10T23:45:37.835Z,54.14
2019-04-10T23:48:11.242Z,53.97
2019-04-10T23:50:44.350Z,54.02
2019-04-10T23:53:17.313Z,54.37
2019-04-10T23:55:50.409Z,54.58
2019-04-10T23:58:24.335Z,54.38
